createdAt,value
2018-01-27T00:02:11.923Z,22.90
2018-01-27T00:04:38.648Z,22.80
2018-01-27T00:07:05.661Z,21.33
2018-01-27T00:09:32.492Z,22.20
2018-01-27T00:11:59.631Z,23.37
2018-01-27T00:14:26.795Z,22.57
2018-01-27T00:16:53.536Z,22.40
2018-01-27T00:19:20.245Z,22.20
2018-01-27T00:21:47.117Z,22.27
2018-01-27T00:24:14.250Z,23.77
2018-01-27T00:26:41.105Z,23.80
2018-01-27T00:29:07.841Z,25.37
2018-01-27T00:31:34.520Z,24.33
2018-01-27T00:34:01.301Z,26.47
2018-01-27T00:36:28.010Z,24.57
2018-01-27T00:38:54.719Z,23.60
2018-01-27T00:41:21.434Z,24.80
2018-01-27T00:43:48.184Z,23.87
2018-01-27T00:46:14.977Z,23.43
2018-01-27T00:48:41.699Z,23.30
2018-01-27T00:51:08.482Z,24.07
2018-01-27T00:53:35.177Z,24.20
2018-01-27T00:56:02.584Z,23.47
2018-01-27T00:58:29.275Z,24.47
2018-01-27T01:00:56.048Z,25.20
2018-01-27T01:03:22.812Z,24.47
2018-01-27T01:05:49.510Z,22.53
2018-01-27T01:08:16.209Z,24.23
2018-01-27T01:10:42.895Z,21.80
2018-01-27T01:13:09.625Z,22.77
2018-01-27T01:15:36.315Z,23.47
2018-01-27T01:18:03.064Z,22.50
2018-01-27T01:20:29.768Z,22.33
2018-01-27T01:22:56.469Z,20.60
2018-01-27T01:25:23.190Z,22.23
2018-01-27T01:27:49.895Z,21.17
2018-01-27T01:30:16.628Z,21.30
2018-01-27T01:32:46.888Z,22.07
2018-01-27T01:35:13.645Z,23.20
2018-01-27T01:37:40.339Z,25.67
2018-01-27T01:40:07.146Z,25.53
2018-01-27T01:42:39.409Z,24.83
2018-01-27T01:45:06.092Z,26.60
2018-01-27T01:47:32.826Z,25.73
2018-01-27T01:49:59.523Z,24.10
2018-01-27T01:52:26.212Z,25.30
2018-01-27T01:54:52.949Z,24.10
2018-01-27T01:57:19.682Z,24.90
2018-01-27T01:59:46.394Z,23.87
2018-01-27T02:02:13.187Z,26.40
2018-01-27T02:04:39.868Z,24.60
2018-01-27T02:07:06.551Z,25.43
2018-01-27T02:09:33.319Z,24.70
2018-01-27T02:12:00.018Z,24.30
2018-01-27T02:14:26.728Z,23.40
2018-01-27T02:16:53.444Z,20.67
2018-01-27T02:19:20.142Z,21.77
2018-01-27T02:21:46.895Z,22.27
2018-01-27T02:24:13.581Z,23.83
2018-01-27T02:26:40.297Z,22.07
2018-01-27T02:29:06.990Z,22.90
2018-01-27T02:31:33.759Z,23.07
2018-01-27T02:34:00.517Z,21.40
2018-01-27T02:36:27.197Z,23.63
2018-01-27T02:38:53.935Z,23.60
2018-01-27T02:41:20.634Z,21.63
2018-01-27T02:43:47.330Z,25.80
2018-01-27T02:46:14.077Z,24.63
2018-01-27T02:48:40.765Z,25.10
2018-01-27T02:51:07.452Z,27.30
2018-01-27T02:53:34.193Z,25.50
2018-01-27T02:56:00.895Z,26.20
2018-01-27T02:58:27.608Z,26.00
2018-01-27T03:00:54.325Z,24.87
2018-01-27T03:03:21.006Z,24.97
2018-01-27T03:05:47.720Z,20.50
2018-01-27T03:08:14.435Z,22.87
2018-01-27T03:10:41.301Z,18.60
2018-01-27T03:13:08.071Z,20.43
2018-01-27T03:15:34.736Z,21.37
2018-01-27T03:18:01.443Z,22.90
2018-01-27T03:20:28.161Z,21.93
2018-01-27T03:22:54.851Z,21.90
2018-01-27T03:25:21.665Z,20.60
2018-01-27T03:27:48.364Z,21.40
2018-01-27T03:30:15.068Z,21.07
2018-01-27T03:32:41.811Z,22.70
2018-01-27T03:35:08.582Z,22.90
2018-01-27T03:37:35.262Z,20.47
2018-01-27T03:40:01.994Z,22.90
2018-01-27T03:42:28.670Z,21.93
2018-01-27T03:44:55.381Z,23.63
2018-01-27T03:47:22.076Z,23.23
2018-01-27T03:49:48.786Z,24.20
2018-01-27T03:52:15.478Z,23.00
2018-01-27T03:54:42.195Z,23.97
2018-01-27T03:57:08.959Z,22.67
2018-01-27T03:59:35.651Z,24.20
2018-01-27T04:02:02.362Z,22.33
2018-01-27T04:04:29.100Z,21.80
2018-01-27T04:06:55.781Z,22.57
2018-01-27T04:09:22.477Z,21.97
2018-01-27T04:11:49.222Z,21.13
2018-01-27T04:14:15.924Z,20.37
2018-01-27T04:16:42.664Z,21.03
2018-01-27T04:19:09.370Z,21.30
2018-01-27T04:21:36.086Z,21.20
2018-01-27T04:24:02.843Z,21.97
2018-01-27T04:26:29.688Z,22.23
2018-01-27T04:28:56.397Z,20.37
2018-01-27T04:31:23.101Z,22.00
2018-01-27T04:33:49.813Z,20.37
2018-01-27T04:36:16.512Z,21.57
2018-01-27T04:38:43.246Z,20.30
2018-01-27T04:41:09.990Z,20.40
2018-01-27T04:43:36.661Z,20.60
2018-01-27T04:46:03.398Z,18.97
2018-01-27T04:48:30.124Z,20.17
2018-01-27T04:50:56.839Z,19.53
2018-01-27T04:53:23.590Z,19.30
2018-01-27T04:55:50.349Z,17.60
2018-01-27T04:58:17.017Z,19.87
2018-01-27T05:00:43.750Z,20.20
2018-01-27T05:03:10.427Z,18.77
2018-01-27T05:05:37.124Z,20.07
2018-01-27T05:08:03.833Z,21.00
2018-01-27T05:10:30.516Z,23.23
2018-01-27T05:12:57.229Z,22.70
2018-01-27T05:15:23.956Z,23.50
2018-01-27T05:17:50.685Z,21.90
2018-01-27T05:20:17.398Z,23.00
2018-01-27T05:22:44.113Z,22.80
2018-01-27T05:25:10.877Z,21.43
2018-01-27T05:27:37.656Z,21.57
2018-01-27T05:30:04.439Z,20.57
2018-01-27T05:32:31.115Z,21.53
2018-01-27T05:34:57.807Z,20.90
2018-01-27T05:37:24.571Z,19.63
2018-01-27T05:39:51.294Z,20.63
2018-01-27T05:42:18.016Z,21.40
2018-01-27T05:44:44.788Z,22.33
2018-01-27T05:47:11.477Z,21.73
2018-01-27T05:49:38.232Z,24.00
2018-01-27T05:52:04.940Z,22.93
2018-01-27T05:54:31.622Z,23.57
2018-01-27T05:56:58.386Z,24.27
2018-01-27T05:59:25.158Z,25.20
2018-01-27T06:01:51.878Z,25.57
2018-01-27T06:04:18.609Z,26.47
2018-01-27T06:06:45.361Z,25.33
2018-01-27T06:09:12.105Z,24.80
2018-01-27T06:11:38.803Z,25.07
2018-01-27T06:14:05.534Z,25.37
2018-01-27T06:16:32.233Z,25.80
2018-01-27T06:18:58.951Z,26.97
2018-01-27T06:21:25.700Z,27.50
2018-01-27T06:23:52.519Z,25.97
2018-01-27T06:26:19.820Z,25.67
2018-01-27T06:28:46.528Z,26.63
2018-01-27T06:31:13.242Z,26.40
2018-01-27T06:33:39.982Z,28.20
2018-01-27T06:36:06.700Z,26.40
2018-01-27T06:38:34.188Z,26.70
2018-01-27T06:41:00.922Z,27.00
2018-01-27T06:43:28.497Z,24.43
2018-01-27T06:45:55.353Z,24.87
2018-01-27T06:48:22.057Z,23.43
2018-01-27T06:50:48.763Z,27.00
2018-01-27T06:53:15.485Z,26.83
2018-01-27T06:55:42.228Z,27.20
2018-01-27T06:58:08.927Z,27.20
2018-01-27T07:00:35.720Z,27.77
2018-01-27T07:03:02.503Z,27.43
2018-01-27T07:05:29.209Z,26.27
2018-01-27T07:07:55.979Z,26.67
2018-01-27T07:10:22.727Z,25.73
2018-01-27T07:12:49.450Z,27.63
2018-01-27T07:15:16.197Z,26.60
2018-01-27T07:17:42.971Z,27.00
2018-01-27T07:20:09.811Z,28.27
2018-01-27T07:22:36.518Z,29.73
2018-01-27T07:25:03.389Z,25.83
2018-01-27T07:27:30.102Z,26.93
2018-01-27T07:29:56.805Z,27.43
2018-01-27T07:32:23.642Z,28.03
2018-01-27T07:34:50.417Z,27.37
2018-01-27T07:37:17.203Z,31.27
2018-01-27T07:39:44.008Z,31.07
2018-01-27T07:42:10.710Z,28.87
2018-01-27T07:44:37.489Z,28.30
2018-01-27T07:47:04.248Z,28.00
2018-01-27T07:49:30.959Z,26.60
2018-01-27T07:51:57.716Z,29.90
2018-01-27T07:54:24.438Z,29.23
2018-01-27T07:56:51.186Z,28.90
2018-01-27T07:59:17.904Z,27.83
2018-01-27T08:01:44.615Z,26.23
2018-01-27T08:04:11.388Z,26.60
2018-01-27T08:06:38.185Z,25.20
2018-01-27T08:09:04.878Z,25.87
2018-01-27T08:11:32.387Z,23.97
2018-01-27T08:13:59.150Z,24.33
2018-01-27T08:16:25.861Z,23.27
2018-01-27T08:18:52.555Z,23.13
2018-01-27T08:21:19.262Z,22.67
2018-01-27T08:23:45.971Z,20.90
2018-01-27T08:26:12.710Z,21.50
2018-01-27T08:28:39.423Z,21.90
2018-01-27T08:31:06.139Z,22.13
2018-01-27T08:33:32.853Z,20.20
2018-01-27T08:35:59.576Z,21.17
2018-01-27T08:38:26.261Z,20.97
2018-01-27T08:40:53.053Z,21.97
2018-01-27T08:43:19.772Z,22.03
2018-01-27T08:45:46.453Z,21.00
2018-01-27T08:48:13.162Z,22.50
2018-01-27T08:50:40.754Z,22.63
2018-01-27T08:53:07.463Z,21.73
2018-01-27T08:55:34.223Z,22.90
2018-01-27T08:58:00.942Z,23.73
2018-01-27T09:00:27.668Z,25.73
2018-01-27T09:02:54.418Z,24.17
2018-01-27T09:05:21.159Z,22.03
2018-01-27T09:07:47.868Z,21.60
2018-01-27T09:10:15.295Z,23.30
2018-01-27T09:12:42.350Z,22.07
2018-01-27T09:15:09.100Z,23.73
2018-01-27T09:17:35.842Z,21.70
2018-01-27T09:20:02.925Z,22.43
2018-01-27T09:22:29.634Z,21.07
2018-01-27T09:24:56.779Z,21.77
2018-01-27T09:27:23.491Z,22.13
2018-01-27T09:29:50.188Z,22.50
2018-01-27T09:32:16.903Z,23.00
2018-01-27T09:34:43.607Z,23.60
2018-01-27T09:37:10.345Z,24.53
2018-01-27T09:39:37.054Z,23.97
2018-01-27T09:42:03.829Z,23.77
2018-01-27T09:44:30.950Z,26.73
2018-01-27T09:46:57.701Z,24.50
2018-01-27T09:49:24.461Z,22.10
2018-01-27T09:51:51.283Z,25.00
2018-01-27T09:54:18.850Z,23.03
2018-01-27T09:56:45.582Z,24.73
2018-01-27T09:59:12.356Z,23.73
2018-01-27T10:01:39.092Z,23.40
2018-01-27T10:04:05.801Z,21.63
2018-01-27T10:06:32.603Z,19.80
2018-01-27T10:08:59.311Z,20.67
2018-01-27T10:11:26.073Z,20.87
2018-01-27T10:13:52.873Z,22.13
2018-01-27T10:16:19.799Z,22.60
2018-01-27T10:18:46.558Z,22.97
2018-01-27T10:21:13.330Z,21.10
2018-01-27T10:23:40.179Z,21.17
2018-01-27T10:26:06.910Z,19.03
2018-01-27T10:28:33.711Z,20.57
2018-01-27T10:31:00.592Z,20.00
2018-01-27T10:33:27.312Z,18.80
2018-01-27T10:35:54.210Z,17.50
2018-01-27T10:38:21.008Z,18.30
2018-01-27T10:40:47.722Z,21.93
2018-01-27T10:43:14.489Z,21.67
2018-01-27T10:45:41.334Z,20.77
2018-01-27T10:48:08.068Z,23.47
2018-01-27T10:50:34.783Z,22.20
2018-01-27T10:53:01.974Z,22.33
2018-01-27T10:55:28.698Z,23.70
2018-01-27T10:57:55.438Z,24.60
2018-01-27T11:00:22.254Z,20.97
2018-01-27T11:02:48.990Z,21.00
2018-01-27T11:05:15.737Z,22.23
2018-01-27T11:07:42.451Z,22.70
2018-01-27T11:10:09.442Z,22.70
2018-01-27T11:12:36.132Z,23.33
2018-01-27T11:15:02.922Z,22.67
2018-01-27T11:17:29.750Z,22.43
2018-01-27T11:19:56.453Z,20.40
2018-01-27T11:22:23.238Z,20.63
2018-01-27T11:24:49.959Z,21.07
2018-01-27T11:27:16.735Z,19.30
2018-01-27T11:29:43.457Z,18.40
2018-01-27T11:32:10.191Z,18.97
2018-01-27T11:34:37.010Z,18.77
2018-01-27T11:37:03.785Z,18.27
2018-01-27T11:39:30.532Z,16.33
2018-01-27T11:41:57.309Z,14.90
2018-01-27T11:44:24.086Z,16.83
2018-01-27T11:46:50.834Z,15.40
2018-01-27T11:49:17.938Z,14.90
2018-01-27T11:51:44.636Z,14.57
2018-01-27T11:54:11.341Z,15.53
2018-01-27T11:56:38.035Z,14.90
2018-01-27T11:59:04.795Z,16.33
2018-01-27T12:01:31.509Z,13.83
2018-01-27T12:03:58.241Z,14.83
2018-01-27T12:06:26.170Z,17.37
2018-01-27T12:08:52.922Z,12.97
2018-01-27T12:11:19.979Z,15.20
2018-01-27T12:13:46.686Z,15.53
2018-01-27T12:16:13.397Z,14.53
2018-01-27T12:18:40.823Z,14.30
2018-01-27T12:21:07.550Z,15.67
2018-01-27T12:23:34.267Z,13.67
2018-01-27T12:26:00.969Z,14.07
2018-01-27T12:28:27.953Z,14.00
2018-01-27T12:30:54.715Z,14.87
2018-01-27T12:33:21.425Z,14.20
2018-01-27T12:35:49.803Z,14.73
2018-01-27T12:38:16.625Z,14.17
2018-01-27T12:40:54.442Z,13.77
2018-01-27T12:43:24.890Z,15.73
2018-01-27T12:45:52.863Z,14.93
2018-01-27T12:48:21.515Z,14.90
2018-01-27T12:50:48.375Z,14.60
2018-01-27T12:55:48.546Z,13.77
2018-01-27T12:58:16.305Z,15.53
2018-01-27T13:03:57.216Z,16.00
2018-01-27T13:06:25.549Z,16.53
2018-01-27T13:08:52.241Z,16.03
2018-01-27T13:11:19.219Z,16.97
2018-01-27T13:13:45.963Z,15.93
2018-01-27T13:16:12.696Z,17.90
2018-01-27T13:18:39.436Z,17.13
2018-01-27T13:21:06.236Z,18.77
2018-01-27T13:23:32.978Z,19.37
2018-01-27T13:25:59.695Z,17.00
2018-01-27T13:28:26.426Z,17.03
2018-01-27T13:30:53.106Z,15.53
2018-01-27T13:33:19.850Z,15.13
2018-01-27T13:35:46.575Z,15.53
2018-01-27T13:38:13.494Z,15.37
2018-01-27T13:40:40.215Z,15.43
2018-01-27T13:43:06.899Z,16.00
2018-01-27T13:45:34.314Z,16.67
2018-01-27T13:48:01.104Z,15.70
2018-01-27T13:50:27.978Z,16.10
2018-01-27T13:52:54.692Z,17.97
2018-01-27T13:55:21.418Z,18.43
2018-01-27T13:57:48.183Z,17.47
2018-01-27T14:00:14.920Z,16.70
2018-01-27T14:02:41.658Z,17.97
2018-01-27T14:05:09.742Z,19.63
2018-01-27T14:07:37.061Z,18.30
2018-01-27T14:10:04.160Z,18.73
2018-01-27T14:12:30.886Z,18.77
2018-01-27T14:14:57.578Z,18.40
2018-01-27T14:17:24.331Z,18.67
2018-01-27T14:19:51.016Z,18.00
2018-01-27T14:22:17.743Z,19.93
2018-01-27T14:24:44.514Z,19.13
2018-01-27T14:27:11.300Z,18.37
2018-01-27T14:29:38.155Z,19.87
2018-01-27T14:32:04.852Z,18.50
2018-01-27T14:34:31.624Z,19.50
2018-01-27T14:36:58.359Z,19.60
2018-01-27T14:39:25.076Z,20.73
2018-01-27T14:41:51.769Z,20.27
2018-01-27T14:44:18.512Z,19.73
2018-01-27T14:46:45.251Z,20.93
2018-01-27T14:49:12.010Z,19.13
2018-01-27T14:51:39.102Z,22.60
2018-01-27T14:54:06.019Z,18.83
2018-01-27T14:56:32.793Z,21.20
2018-01-27T14:58:59.554Z,21.20
2018-01-27T15:01:26.263Z,22.20
2018-01-27T15:03:53.121Z,20.30
2018-01-27T15:06:19.836Z,21.10
2018-01-27T15:08:46.549Z,21.20
2018-01-27T15:11:13.257Z,20.13
2018-01-27T15:13:39.987Z,20.33
2018-01-27T15:16:06.705Z,20.53
2018-01-27T15:18:33.505Z,20.77
2018-01-27T15:21:00.252Z,20.07
2018-01-27T15:23:26.965Z,21.80
2018-01-27T15:25:53.696Z,20.60
2018-01-27T15:28:22.296Z,20.83
2018-01-27T15:30:49.498Z,23.23
2018-01-27T15:33:16.270Z,22.17
2018-01-27T15:35:43.035Z,21.83
2018-01-27T15:38:09.730Z,21.90
2018-01-27T15:40:36.475Z,21.03
2018-01-27T15:43:03.313Z,20.80
2018-01-27T15:45:30.079Z,21.83
2018-01-27T15:47:57.775Z,23.00
2018-01-27T15:50:24.508Z,21.93
2018-01-27T15:52:51.201Z,21.03
2018-01-27T15:55:17.919Z,23.10
2018-01-27T15:57:45.105Z,20.60
2018-01-27T16:00:11.847Z,22.20
2018-01-27T16:02:38.624Z,21.27
2018-01-27T16:05:05.419Z,21.13
2018-01-27T16:07:32.214Z,20.47
2018-01-27T16:09:58.935Z,22.53
2018-01-27T16:12:25.738Z,21.20
2018-01-27T16:14:52.473Z,21.33
2018-01-27T16:17:19.200Z,22.47
2018-01-27T16:19:45.965Z,21.40
2018-01-27T16:22:12.750Z,21.33
2018-01-27T16:24:39.528Z,20.87
2018-01-27T16:27:06.262Z,21.60
2018-01-27T16:29:33.006Z,20.37
2018-01-27T16:31:59.740Z,21.47
2018-01-27T16:34:26.477Z,23.00
2018-01-27T16:36:53.206Z,22.87
2018-01-27T16:39:19.925Z,22.13
2018-01-27T16:41:46.642Z,23.67
2018-01-27T16:44:13.437Z,24.53
2018-01-27T16:46:40.226Z,22.07
2018-01-27T16:49:07.080Z,23.00
2018-01-27T16:51:34.210Z,23.13
2018-01-27T16:54:00.925Z,23.63
2018-01-27T16:56:27.674Z,24.50
2018-01-27T16:58:54.431Z,23.83
2018-01-27T17:01:21.133Z,21.10
2018-01-27T17:03:47.934Z,22.90
2018-01-27T17:06:14.691Z,21.33
2018-01-27T17:08:41.429Z,22.20
2018-01-27T17:11:08.304Z,21.50
2018-01-27T17:13:35.128Z,21.27
2018-01-27T17:16:01.924Z,23.00
2018-01-27T17:18:28.644Z,21.80
2018-01-27T17:20:55.376Z,22.77
2018-01-27T17:23:22.115Z,22.87
2018-01-27T17:25:48.820Z,23.90
2018-01-27T17:28:15.556Z,23.20
2018-01-27T17:30:42.276Z,22.20
2018-01-27T17:33:08.949Z,23.27
2018-01-27T17:35:35.681Z,25.73
2018-01-27T17:38:02.494Z,23.40
2018-01-27T17:40:29.231Z,22.70
2018-01-27T17:42:56.005Z,24.80
2018-01-27T17:45:23.439Z,24.67
2018-01-27T17:47:50.146Z,22.83
2018-01-27T17:50:16.881Z,25.70
2018-01-27T17:52:43.613Z,23.00
2018-01-27T17:55:10.341Z,22.13
2018-01-27T17:57:37.050Z,23.80
2018-01-27T18:00:03.815Z,24.70
2018-01-27T18:02:31.128Z,24.30
2018-01-27T18:04:58.041Z,24.00
2018-01-27T18:07:24.907Z,26.00
2018-01-27T18:09:51.690Z,23.97
2018-01-27T18:12:18.528Z,24.80
2018-01-27T18:14:45.381Z,26.73
2018-01-27T18:17:13.297Z,25.97
2018-01-27T18:19:40.143Z,24.80
2018-01-27T18:22:06.949Z,28.27
2018-01-27T18:24:33.717Z,27.33
2018-01-27T18:27:00.872Z,27.33
2018-01-27T18:29:27.767Z,26.07
2018-01-27T18:31:54.604Z,23.77
2018-01-27T18:34:21.297Z,23.87
2018-01-27T18:36:48.014Z,23.23
2018-01-27T18:39:14.723Z,25.20
2018-01-27T18:41:41.484Z,27.50
2018-01-27T18:44:08.613Z,25.60
2018-01-27T18:46:35.739Z,24.73
2018-01-27T18:49:02.444Z,23.30
2018-01-27T18:51:29.965Z,24.40
2018-01-27T18:53:56.734Z,23.00
2018-01-27T18:56:23.471Z,24.80
2018-01-27T18:58:50.227Z,24.73
2018-01-27T19:01:16.904Z,25.63
2018-01-27T19:03:43.636Z,25.80
2018-01-27T19:06:10.363Z,24.07
2018-01-27T19:08:37.136Z,24.20
2018-01-27T19:11:03.851Z,25.40
2018-01-27T19:13:30.562Z,23.73
2018-01-27T19:15:57.550Z,22.87
2018-01-27T19:18:24.243Z,22.80
2018-01-27T19:20:50.979Z,21.63
2018-01-27T19:23:17.725Z,22.67
2018-01-27T19:25:44.439Z,23.10
2018-01-27T19:28:11.201Z,23.03
2018-01-27T19:30:37.925Z,25.47
2018-01-27T19:33:04.613Z,24.80
2018-01-27T19:35:31.310Z,26.33
2018-01-27T19:37:58.112Z,26.50
2018-01-27T19:40:24.844Z,25.10
2018-01-27T19:42:51.610Z,25.40
2018-01-27T19:45:18.332Z,27.73
2018-01-27T19:47:45.116Z,27.87
2018-01-27T19:50:11.852Z,27.87
2018-01-27T19:52:38.561Z,26.27
2018-01-27T19:55:05.274Z,26.97
2018-01-27T19:57:32.069Z,28.30
2018-01-27T19:59:58.832Z,29.10
2018-01-27T20:02:25.580Z,29.47
2018-01-27T20:04:52.550Z,28.33
2018-01-27T20:07:19.250Z,29.13
2018-01-27T20:09:45.965Z,27.50
2018-01-27T20:12:14.204Z,27.30
2018-01-27T20:14:41.011Z,28.40
2018-01-27T20:17:07.754Z,30.07
2018-01-27T20:19:34.554Z,27.87
2018-01-27T20:22:01.275Z,27.10
2018-01-27T20:24:27.992Z,28.80
2018-01-27T20:26:54.745Z,27.57
2018-01-27T20:29:21.507Z,28.47
2018-01-27T20:31:48.210Z,27.37
2018-01-27T20:34:14.963Z,28.30
2018-01-27T20:36:41.732Z,26.70
2018-01-27T20:39:08.471Z,28.30
2018-01-27T20:41:35.420Z,25.97
2018-01-27T20:44:02.128Z,28.93
2018-01-27T20:46:28.976Z,27.83
2018-01-27T20:48:55.808Z,29.37
2018-01-27T20:51:22.567Z,28.23
2018-01-27T20:53:49.249Z,26.70
2018-01-27T20:56:16.006Z,26.50
2018-01-27T20:58:42.789Z,28.03
2018-01-27T21:01:09.510Z,26.53
2018-01-27T21:03:37.236Z,27.83
2018-01-27T21:06:03.999Z,28.10
2018-01-27T21:08:30.723Z,28.13
2018-01-27T21:10:57.523Z,25.87
2018-01-27T21:13:24.234Z,28.17
2018-01-27T21:15:50.954Z,26.83
2018-01-27T21:18:17.758Z,25.50
2018-01-27T21:20:44.510Z,27.07
2018-01-27T21:23:11.208Z,26.37
2018-01-27T21:25:38.056Z,27.30
2018-01-27T21:28:04.744Z,28.83
2018-01-27T21:30:31.856Z,28.33
2018-01-27T21:32:58.619Z,27.87
2018-01-27T21:35:25.393Z,29.70
2018-01-27T21:37:52.124Z,29.47
2018-01-27T21:40:18.869Z,29.20
2018-01-27T21:42:45.605Z,29.13
2018-01-27T21:45:12.311Z,28.33
2018-01-27T21:47:39.021Z,28.27
2018-01-27T21:50:05.794Z,27.50
2018-01-27T21:52:32.430Z,30.10
2018-01-27T21:54:59.199Z,30.47
2018-01-27T21:57:25.989Z,28.40
2018-01-27T21:59:52.694Z,30.77
2018-01-27T22:02:19.463Z,31.47
2018-01-27T22:04:46.205Z,30.90
2018-01-27T22:07:12.896Z,30.63
2018-01-27T22:09:40.332Z,32.70
2018-01-27T22:12:07.043Z,31.90
2018-01-27T22:14:33.841Z,34.37
2018-01-27T22:17:00.541Z,34.67
2018-01-27T22:19:27.237Z,34.37
2018-01-27T22:21:53.970Z,33.93
2018-01-27T22:24:20.780Z,34.67
2018-01-27T22:26:47.491Z,33.43
2018-01-27T22:29:15.293Z,35.43
2018-01-27T22:31:42.011Z,34.83
2018-01-27T22:34:08.737Z,35.60
2018-01-27T22:36:35.463Z,34.30
2018-01-27T22:39:02.173Z,34.77
2018-01-27T22:41:28.876Z,34.00
2018-01-27T22:43:55.572Z,35.17
2018-01-27T22:46:22.339Z,34.47
2018-01-27T22:48:49.051Z,37.93
2018-01-27T22:51:15.786Z,36.07
2018-01-27T22:53:42.486Z,33.60
2018-01-27T22:56:09.231Z,34.57
2018-01-27T22:58:35.971Z,33.20
2018-01-27T23:01:08.524Z,38.97
2018-01-27T23:03:36.098Z,34.80
2018-01-27T23:06:02.876Z,36.40
2018-01-27T23:08:29.629Z,34.93
2018-01-27T23:10:56.338Z,38.77
2018-01-27T23:13:23.129Z,36.30
2018-01-27T23:15:52.711Z,36.60
2018-01-27T23:18:19.422Z,35.57
2018-01-27T23:20:46.155Z,37.10
2018-01-27T23:23:12.848Z,36.83
2018-01-27T23:25:39.602Z,37.63
2018-01-27T23:28:06.374Z,35.83
2018-01-27T23:30:33.105Z,36.00
2018-01-27T23:32:59.828Z,34.87
2018-01-27T23:35:26.558Z,34.87
2018-01-27T23:37:53.265Z,36.77
2018-01-27T23:40:19.965Z,36.53
2018-01-27T23:42:47.187Z,36.30
2018-01-27T23:45:13.853Z,35.30
2018-01-27T23:47:41.195Z,38.40
2018-01-27T23:50:07.873Z,36.37
2018-01-27T23:52:34.648Z,38.30
2018-01-27T23:55:01.359Z,38.30
2018-01-27T23:57:28.093Z,35.90
2018-01-27T23:59:54.790Z,39.00
